Time;durP1;ratioP1;P1;durP2;ratioP2;P2;SDS_P1;SDS_P2;PMS_P1;PMS_P2;Temp;Humidity;BMP_temperature;BMP_pressure;BME280_temperature;BME280_humidity;BME280_pressure;Samples;Min_cycle;Max_cycle;Signal;HPM_P1;HPM_P2
2021/12/22 00:01:36;;;;;;;14.60;8.77;;;-0.50;99.90;;;;;;5134033;27;20252;-49
2021/12/22 00:04:03;;;;;;;18.20;10.18;;;-0.50;99.90;;;;;;5134260;27;20172;-48
2021/12/22 00:06:32;;;;;;;16.30;8.52;;;-0.50;99.90;;;;;;5134433;27;20168;-49
2021/12/22 00:08:58;;;;;;;20.67;9.30;;;-0.60;99.90;;;;;;5134109;27;20674;-48
2021/12/22 00:11:24;;;;;;;20.73;9.35;;;-0.70;99.90;;;;;;5133140;27;20223;-49
2021/12/22 00:13:50;;;;;;;19.55;9.88;;;-0.60;99.90;;;;;;5133750;27;20194;-48
2021/12/22 00:16:15;;;;;;;15.45;9.02;;;-0.60;99.90;;;;;;5133872;27;20342;-47
2021/12/22 00:18:41;;;;;;;14.55;8.82;;;-0.60;99.90;;;;;;5133636;27;20209;-48
2021/12/22 00:21:07;;;;;;;21.20;8.80;;;-0.60;99.90;;;;;;5133643;27;20168;-48
2021/12/22 00:23:32;;;;;;;18.10;8.93;;;-0.70;99.90;;;;;;5133702;27;20247;-49
2021/12/22 00:25:58;;;;;;;18.75;9.05;;;-0.60;99.90;;;;;;5133814;27;20565;-48
2021/12/22 00:28:23;;;;;;;21.58;9.55;;;-0.60;99.90;;;;;;5133474;27;20525;-49
2021/12/22 00:30:50;;;;;;;17.27;10.10;;;-0.60;99.90;;;;;;5133407;27;20528;-48
2021/12/22 00:33:17;;;;;;;17.67;9.02;;;-0.60;99.90;;;;;;5133622;27;20168;-49
2021/12/22 00:35:45;;;;;;;19.45;9.63;;;-0.60;99.90;;;;;;5133331;27;20199;-48
2021/12/22 00:38:17;;;;;;;20.48;9.18;;;-0.60;99.90;;;;;;5133292;27;20167;-48
2021/12/22 00:40:43;;;;;;;19.27;9.57;;;-0.60;99.90;;;;;;5133280;27;20179;-49
2021/12/22 00:43:10;;;;;;;19.38;10.00;;;-0.60;99.90;;;;;;5133297;27;20179;-48
2021/12/22 00:45:36;;;;;;;15.40;8.57;;;-0.60;99.90;;;;;;5133417;27;20232;-48
2021/12/22 00:48:04;;;;;;;17.95;9.43;;;-0.70;99.90;;;;;;5133257;27;20250;-48
2021/12/22 00:50:30;;;;;;;20.23;9.48;;;-0.70;99.90;;;;;;5133511;27;20164;-49
2021/12/22 00:52:55;;;;;;;17.90;10.35;;;-0.70;99.90;;;;;;5133413;27;20757;-50
2021/12/22 00:55:21;;;;;;;19.42;9.93;;;-0.70;99.90;;;;;;5133364;27;20214;-49
2021/12/22 00:57:48;;;;;;;20.40;9.98;;;-0.70;99.90;;;;;;5133066;27;20164;-50
2021/12/22 01:00:16;;;;;;;26.63;11.32;;;-0.80;99.90;;;;;;5133054;27;20645;-50
2021/12/22 01:02:43;;;;;;;14.80;9.15;;;-0.70;99.90;;;;;;5133042;27;20251;-47
2021/12/22 01:05:12;;;;;;;16.52;8.80;;;-0.70;99.90;;;;;;5133024;27;20253;-49
2021/12/22 01:07:39;;;;;;;20.95;9.50;;;-0.80;99.90;;;;;;5133262;27;20182;-48
2021/12/22 01:10:05;;;;;;;20.70;9.35;;;-0.80;99.90;;;;;;5133241;27;20620;-49
2021/12/22 01:12:31;;;;;;;19.05;8.88;;;-0.80;99.90;;;;;;5132975;27;20175;-49
2021/12/22 01:14:57;;;;;;;17.38;8.75;;;-0.90;99.90;;;;;;5133111;27;20580;-50
2021/12/22 01:17:22;;;;;;;14.32;8.35;;;-0.80;99.90;;;;;;5132829;27;20248;-48
2021/12/22 01:20:03;;;;;;;16.38;8.50;;;-0.90;99.90;;;;;;5132930;27;20171;-49
2021/12/22 01:22:37;;;;;;;16.45;8.60;;;-0.90;99.90;;;;;;5134257;27;20168;-49
2021/12/22 01:25:06;;;;;;;18.92;8.45;;;-0.80;99.90;;;;;;5136995;27;20164;-49
2021/12/22 01:27:37;;;;;;;14.77;8.30;;;-0.80;99.90;;;;;;5137080;27;20160;-50
2021/12/22 01:30:12;;;;;;;16.98;8.35;;;-0.80;99.90;;;;;;5136978;27;20168;-50
2021/12/22 01:32:38;;;;;;;16.67;8.10;;;-0.80;99.90;;;;;;5136898;27;20172;-51
2021/12/22 01:35:07;;;;;;;13.48;7.63;;;-0.80;99.90;;;;;;5136772;27;20239;-50
2021/12/22 01:37:33;;;;;;;18.17;7.55;;;-0.80;99.90;;;;;;5136863;27;20517;-50
2021/12/22 01:40:00;;;;;;;15.25;7.30;;;-0.80;99.90;;;;;;5137220;27;20164;-50
2021/12/22 01:42:26;;;;;;;14.35;7.88;;;-0.80;99.90;;;;;;5137284;27;20207;-50
2021/12/22 01:50:16;;;;;;;12.57;8.15;;;-0.80;99.90;;;;;;5136916;27;20189;-50
2021/12/22 01:52:42;;;;;;;15.35;6.90;;;-0.80;99.90;;;;;;5136794;27;20190;-50
2021/12/22 01:55:25;;;;;;;11.35;6.95;;;-0.80;99.90;;;;;;5136698;27;20671;-50
2021/12/22 01:57:51;;;;;;;16.48;7.53;;;-0.80;99.90;;;;;;5136748;27;20181;-51
2021/12/22 02:00:19;;;;;;;17.23;7.93;;;-0.80;99.90;;;;;;5136398;27;20152;-50
2021/12/22 02:02:45;;;;;;;15.77;7.30;;;-0.90;99.90;;;;;;5136185;27;20225;-51
2021/12/22 02:05:11;;;;;;;14.43;6.70;;;-0.80;99.90;;;;;;5136217;27;20571;-50
2021/12/22 02:07:37;;;;;;;16.40;7.47;;;-0.80;99.90;;;;;;5136584;27;20172;-49
2021/12/22 02:10:25;;;;;;;12.18;7.07;;;-0.90;99.90;;;;;;5136022;27;20221;-50
2021/12/22 02:12:53;;;;;;;12.77;6.70;;;-0.90;99.90;;;;;;5136433;27;20254;-50
2021/12/22 02:15:19;;;;;;;13.32;6.78;;;-0.90;99.90;;;;;;5135908;27;20628;-49
2021/12/22 02:17:45;;;;;;;11.90;6.03;;;-0.90;99.90;;;;;;5136112;27;20246;-50
2021/12/22 02:20:11;;;;;;;11.77;6.80;;;-0.90;99.90;;;;;;5136064;27;20247;-50
2021/12/22 02:22:39;;;;;;;13.95;6.43;;;-0.90;99.90;;;;;;5136185;27;20176;-50
2021/12/22 02:25:13;;;;;;;11.00;6.00;;;-0.90;99.90;;;;;;5135948;27;20247;-50
2021/12/22 02:27:45;;;;;;;13.38;7.32;;;-0.90;99.90;;;;;;5135815;27;20658;-50
2021/12/22 02:30:33;;;;;;;11.68;6.45;;;-0.90;99.90;;;;;;5117462;27;20209;-50
2021/12/22 02:36:08;;;;;;;12.25;6.70;;;-1.00;99.90;;;;;;5101238;27;20565;-50
2021/12/22 02:38:42;;;;;;;9.82;6.25;;;-1.00;99.90;;;;;;5135921;27;20193;-50
2021/12/22 02:41:12;;;;;;;13.95;6.72;;;-1.00;99.90;;;;;;5135663;27;20166;-50
2021/12/22 02:43:46;;;;;;;12.60;6.22;;;-1.10;99.90;;;;;;5135570;27;20199;-50
2021/12/22 02:46:12;;;;;;;10.50;6.43;;;-1.10;99.90;;;;;;5135745;27;20221;-49
2021/12/22 02:48:38;;;;;;;11.18;6.53;;;-1.10;99.90;;;;;;5135808;27;20180;-50
2021/12/22 02:51:04;;;;;;;11.75;6.50;;;-1.10;99.90;;;;;;5135443;27;20230;-50
2021/12/22 02:53:44;;;;;;;10.98;6.38;;;-1.20;99.90;;;;;;5135375;27;20548;-49
2021/12/22 02:56:26;;;;;;;11.40;5.55;;;-1.20;99.90;;;;;;5135186;27;20200;-49
2021/12/22 03:04:26;;;;;;;12.70;6.53;;;-1.20;99.90;;;;;;5088833;27;20193;-48
2021/12/22 03:07:02;;;;;;;10.57;6.88;;;-1.20;99.90;;;;;;5135361;27;20185;-49
2021/12/22 03:09:38;;;;;;;12.20;6.18;;;-1.20;99.90;;;;;;5135375;27;20204;-49
2021/12/22 03:12:06;;;;;;;11.40;6.57;;;-1.30;99.90;;;;;;5134844;27;20315;-49
2021/12/22 03:14:31;;;;;;;11.65;6.60;;;-1.20;99.90;;;;;;5134799;27;20655;-49
2021/12/22 03:16:58;;;;;;;11.05;6.50;;;-1.30;99.90;;;;;;5135203;27;20194;-49
2021/12/22 03:19:29;;;;;;;12.43;6.07;;;-1.30;99.90;;;;;;5134859;27;20643;-49
2021/12/22 03:22:01;;;;;;;12.38;6.60;;;-1.30;99.90;;;;;;5135343;27;20172;-49
2021/12/22 03:24:29;;;;;;;13.25;6.22;;;-1.30;99.90;;;;;;5135309;27;20176;-48
2021/12/22 03:26:55;;;;;;;10.13;6.15;;;-1.30;99.90;;;;;;5134779;27;20159;-50
2021/12/22 03:29:21;;;;;;;11.98;6.38;;;-1.30;99.90;;;;;;5134896;27;20205;-49
2021/12/22 03:31:47;;;;;;;13.27;6.88;;;-1.30;99.90;;;;;;5134738;27;20530;-49
2021/12/22 03:34:14;;;;;;;12.50;6.43;;;-1.30;99.90;;;;;;5134533;27;20168;-50
2021/12/22 03:36:43;;;;;;;15.07;7.35;;;-1.20;99.90;;;;;;5134751;27;20296;-50
2021/12/22 03:39:10;;;;;;;12.15;6.20;;;-1.30;99.90;;;;;;5134718;27;20207;-50
2021/12/22 03:41:36;;;;;;;13.35;6.68;;;-1.30;99.90;;;;;;5134410;27;20254;-50
2021/12/22 03:44:06;;;;;;;12.13;6.57;;;-1.30;99.90;;;;;;5134434;27;20187;-49
2021/12/22 03:46:32;;;;;;;10.95;7.03;;;-1.30;99.90;;;;;;5133382;27;20192;-50
2021/12/22 03:48:58;;;;;;;11.02;6.22;;;-1.30;99.90;;;;;;5134619;27;20196;-49
2021/12/22 03:51:25;;;;;;;9.68;6.00;;;-1.30;99.90;;;;;;5134214;27;20160;-50
2021/12/22 03:53:51;;;;;;;14.38;6.25;;;-1.30;99.90;;;;;;5134235;27;20191;-50
2021/12/22 03:56:16;;;;;;;11.10;6.63;;;-1.40;99.90;;;;;;5134102;27;20238;-50
2021/12/22 03:58:42;;;;;;;9.90;6.00;;;-1.30;99.90;;;;;;5134067;27;20178;-50
2021/12/22 04:01:08;;;;;;;13.13;5.95;;;-1.40;99.90;;;;;;5134373;27;20180;-50
2021/12/22 04:03:35;;;;;;;12.80;6.50;;;-1.40;99.90;;;;;;5134197;27;20514;-50
2021/12/22 04:06:02;;;;;;;13.30;6.80;;;-1.40;99.90;;;;;;5134080;27;20175;-50
2021/12/22 04:08:28;;;;;;;11.50;6.15;;;-1.40;99.90;;;;;;5133963;27;20203;-50
2021/12/22 04:10:54;;;;;;;10.43;6.10;;;-1.40;99.90;;;;;;5133517;27;20243;-50
2021/12/22 04:13:20;;;;;;;12.93;7.13;;;-1.40;99.90;;;;;;5133465;27;20160;-49
2021/12/22 04:15:46;;;;;;;10.35;5.90;;;-1.40;99.90;;;;;;5133941;27;20206;-50
2021/12/22 04:18:15;;;;;;;12.90;5.75;;;-1.40;99.90;;;;;;5115427;27;20201;-49
2021/12/22 04:20:40;;;;;;;8.45;6.03;;;-1.50;99.90;;;;;;5133888;27;20175;-50
2021/12/22 04:23:06;;;;;;;14.57;7.00;;;-1.50;99.90;;;;;;5133674;27;20258;-49
2021/12/22 04:25:33;;;;;;;13.07;7.15;;;-1.40;99.90;;;;;;5133815;27;20172;-49
2021/12/22 04:28:06;;;;;;;14.38;6.88;;;-1.40;99.90;;;;;;5134185;27;20176;-49
2021/12/22 04:30:36;;;;;;;12.82;6.55;;;-1.40;99.90;;;;;;5133766;27;20171;-49
2021/12/22 04:33:02;;;;;;;12.57;6.85;;;-1.40;99.90;;;;;;5133527;27;20242;-49
2021/12/22 04:35:28;;;;;;;11.47;6.83;;;-1.50;99.90;;;;;;5133607;27;20222;-48
2021/12/22 04:37:54;;;;;;;10.27;7.20;;;-1.40;99.90;;;;;;5133388;27;20160;-48
2021/12/22 04:40:20;;;;;;;15.48;7.28;;;-1.40;99.90;;;;;;5133323;27;20193;-49
2021/12/22 04:42:45;;;;;;;13.75;6.75;;;-1.40;99.90;;;;;;5133300;27;20164;-50
2021/12/22 04:45:12;;;;;;;12.30;7.00;;;-1.40;99.90;;;;;;5133389;27;20512;-50
2021/12/22 04:47:39;;;;;;;11.68;6.40;;;-1.30;99.90;;;;;;5133315;27;20172;-50
2021/12/22 04:50:10;;;;;;;12.57;6.20;;;-1.30;99.90;;;;;;5133187;27;20165;-50
2021/12/22 04:52:58;;;;;;;11.33;7.13;;;-1.40;99.90;;;;;;5133439;27;20194;-50
2021/12/22 04:55:25;;;;;;;11.50;6.90;;;-1.30;99.90;;;;;;5133305;27;20199;-50
2021/12/22 04:57:52;;;;;;;9.88;7.20;;;-1.20;99.90;;;;;;5132741;27;20198;-50
2021/12/22 05:00:18;;;;;;;11.30;7.45;;;-1.30;99.90;;;;;;5133019;27;20547;-50
2021/12/22 05:02:44;;;;;;;12.00;7.25;;;-1.30;99.90;;;;;;5133251;27;20174;-50
2021/12/22 05:05:10;;;;;;;11.20;6.80;;;-1.30;99.90;;;;;;5133008;27;20302;-50
2021/12/22 05:07:35;;;;;;;10.02;6.60;;;-1.30;99.90;;;;;;5132711;27;20191;-50
2021/12/22 05:10:01;;;;;;;11.93;6.32;;;-1.30;99.90;;;;;;5132825;27;20182;-48
2021/12/22 05:12:27;;;;;;;10.65;6.45;;;-1.30;99.90;;;;;;5133212;27;20172;-50
2021/12/22 05:14:53;;;;;;;13.88;6.60;;;-1.30;99.90;;;;;;5132899;27;20286;-49
2021/12/22 05:17:39;;;;;;;14.25;7.10;;;-1.30;99.90;;;;;;5132877;27;20167;-49
2021/12/22 05:20:06;;;;;;;12.20;6.28;;;-1.30;99.90;;;;;;5133054;27;20296;-49
2021/12/22 05:22:32;;;;;;;17.27;6.55;;;-1.30;99.90;;;;;;5132881;27;20251;-49
2021/12/22 05:24:59;;;;;;;14.95;7.15;;;-1.40;99.90;;;;;;5133071;27;20687;-50
2021/12/22 05:27:25;;;;;;;12.85;7.22;;;-1.40;99.90;;;;;;5132987;27;20195;-49
2021/12/22 05:29:51;;;;;;;13.27;6.72;;;-1.40;99.90;;;;;;5114362;27;20199;-50
2021/12/22 05:32:16;;;;;;;12.02;7.45;;;-1.40;99.90;;;;;;5132774;27;20253;-50
2021/12/22 05:34:42;;;;;;;10.52;5.63;;;-1.40;99.90;;;;;;5132675;27;20164;-50
2021/12/22 05:37:07;;;;;;;14.93;6.22;;;-1.50;99.90;;;;;;5132927;27;20269;-50
2021/12/22 05:39:33;;;;;;;11.82;6.60;;;-1.50;99.90;;;;;;5132781;27;20255;-50
2021/12/22 05:42:01;;;;;;;13.88;7.38;;;-1.50;99.90;;;;;;5132967;28;20239;-49
2021/12/22 05:44:27;;;;;;;14.70;6.88;;;-1.50;99.90;;;;;;5114869;28;20502;-50
2021/12/22 05:46:52;;;;;;;14.20;6.22;;;-1.50;99.90;;;;;;5132599;27;20176;-49
2021/12/22 05:49:18;;;;;;;13.18;6.72;;;-1.60;99.90;;;;;;5132613;27;20171;-50
2021/12/22 05:51:44;;;;;;;14.07;7.32;;;-1.50;99.90;;;;;;5132507;27;20215;-50
2021/12/22 05:54:09;;;;;;;10.73;6.70;;;-1.50;99.90;;;;;;5132991;27;20164;-49
2021/12/22 05:56:35;;;;;;;11.85;6.50;;;-1.50;99.90;;;;;;5132447;27;20610;-49
2021/12/22 05:59:00;;;;;;;12.70;6.88;;;-1.50;99.90;;;;;;5132642;27;20237;-49
2021/12/22 06:01:27;;;;;;;14.15;6.55;;;-1.60;99.90;;;;;;5132788;27;20168;-50
2021/12/22 06:03:52;;;;;;;12.38;6.78;;;-1.60;99.90;;;;;;5132684;27;20168;-48
2021/12/22 06:06:18;;;;;;;9.20;6.05;;;-1.60;99.90;;;;;;5132428;27;20225;-50
2021/12/22 06:08:43;;;;;;;14.02;6.63;;;-1.60;99.90;;;;;;5133610;27;20179;-50
2021/12/22 06:11:09;;;;;;;13.90;7.10;;;-1.50;99.90;;;;;;5136048;27;20705;-50
2021/12/22 06:13:35;;;;;;;10.27;6.63;;;-1.50;99.90;;;;;;5136198;27;20642;-50
2021/12/22 06:16:00;;;;;;;13.93;6.78;;;-1.60;99.90;;;;;;5135787;27;20199;-49
2021/12/22 06:18:27;;;;;;;12.65;6.63;;;-1.50;99.90;;;;;;5136205;27;20170;-50
2021/12/22 06:20:53;;;;;;;12.32;6.55;;;-1.50;99.90;;;;;;5136249;27;20172;-50
2021/12/22 06:23:18;;;;;;;19.80;7.97;;;-1.50;99.90;;;;;;5135924;27;20247;-50
2021/12/22 06:25:44;;;;;;;14.32;7.95;;;-1.50;99.90;;;;;;5135902;27;20585;-50
2021/12/22 06:28:10;;;;;;;12.45;6.82;;;-1.50;99.90;;;;;;5136143;27;20164;-50
2021/12/22 06:30:35;;;;;;;17.88;7.90;;;-1.60;99.90;;;;;;5135825;27;20510;-50
2021/12/22 06:33:01;;;;;;;13.88;8.18;;;-1.50;99.90;;;;;;5135809;27;20187;-49
2021/12/22 06:35:27;;;;;;;17.27;8.40;;;-1.50;99.90;;;;;;5136328;27;20238;-50
2021/12/22 06:37:52;;;;;;;13.75;7.55;;;-1.60;99.90;;;;;;5135731;27;20631;-50
2021/12/22 06:40:18;;;;;;;11.15;7.80;;;-1.50;99.90;;;;;;5135758;27;20212;-50
2021/12/22 06:42:44;;;;;;;16.92;7.72;;;-1.50;99.90;;;;;;5135647;27;20155;-51
2021/12/22 06:45:12;;;;;;;11.80;7.20;;;-1.50;99.90;;;;;;5135796;27;20160;-51
2021/12/22 06:47:38;;;;;;;14.87;7.27;;;-1.50;99.90;;;;;;5135546;27;20206;-51
2021/12/22 06:50:05;;;;;;;12.25;7.13;;;-1.50;99.90;;;;;;5135444;27;20168;-50
2021/12/22 06:52:31;;;;;;;14.73;6.43;;;-1.50;99.90;;;;;;5135422;27;20264;-50
2021/12/22 06:54:56;;;;;;;16.25;6.88;;;-1.50;99.90;;;;;;5135701;27;20208;-51
2021/12/22 06:57:22;;;;;;;11.75;6.72;;;-1.50;99.90;;;;;;5135341;27;20260;-51
2021/12/22 06:59:49;;;;;;;16.25;6.70;;;-1.50;99.90;;;;;;5135529;27;20187;-51
2021/12/22 07:02:15;;;;;;;12.13;6.95;;;-1.50;99.90;;;;;;5135175;27;20611;-50
2021/12/22 07:04:41;;;;;;;14.48;7.05;;;-1.50;99.90;;;;;;5135448;27;20178;-50
2021/12/22 07:07:06;;;;;;;11.23;6.57;;;-1.50;99.90;;;;;;5135227;27;20181;-50
2021/12/22 07:09:32;;;;;;;13.68;7.07;;;-1.60;99.90;;;;;;5135168;27;20168;-50
2021/12/22 07:11:58;;;;;;;17.00;7.88;;;-1.50;99.90;;;;;;5135133;27;20227;-50
2021/12/22 07:14:23;;;;;;;13.83;7.03;;;-1.50;99.90;;;;;;5135009;27;20175;-50
2021/12/22 07:16:49;;;;;;;11.02;7.28;;;-1.50;99.90;;;;;;5134890;27;20280;-50
2021/12/22 07:19:14;;;;;;;16.15;7.15;;;-1.50;99.90;;;;;;5134862;27;20229;-50
2021/12/22 07:21:40;;;;;;;12.60;7.03;;;-1.50;99.90;;;;;;5134884;27;20166;-50
2021/12/22 07:24:06;;;;;;;17.15;7.20;;;-1.50;99.90;;;;;;5134891;27;20213;-50
2021/12/22 07:26:32;;;;;;;16.02;7.40;;;-1.50;99.90;;;;;;5134822;27;20168;-50
2021/12/22 07:28:58;;;;;;;15.63;7.73;;;-1.50;99.90;;;;;;5135039;27;20177;-50
2021/12/22 07:31:23;;;;;;;15.73;7.55;;;-1.50;99.90;;;;;;5134777;27;20265;-50
2021/12/22 07:33:58;;;;;;;16.15;8.65;;;-1.50;99.90;;;;;;5134688;27;20172;-50
2021/12/22 07:36:24;;;;;;;13.68;7.57;;;-1.50;99.90;;;;;;5134564;27;20674;-51
2021/12/22 07:39:01;;;;;;;22.60;9.52;;;-1.50;99.90;;;;;;5134513;27;20182;-50
2021/12/22 07:41:28;;;;;;;15.85;8.13;;;-1.50;99.90;;;;;;5134862;27;20166;-51
2021/12/22 07:43:54;;;;;;;14.30;7.80;;;-1.50;99.90;;;;;;5134377;27;20653;-50
2021/12/22 07:46:20;;;;;;;20.87;8.07;;;-1.50;99.90;;;;;;5134331;27;20276;-51
2021/12/22 07:48:46;;;;;;;13.77;7.30;;;-1.50;99.90;;;;;;5134311;27;20690;-51
2021/12/22 07:51:12;;;;;;;14.75;8.65;;;-1.50;99.90;;;;;;5134348;27;20164;-50
2021/12/22 07:53:38;;;;;;;16.45;8.55;;;-1.40;99.90;;;;;;5134307;27;20160;-51
2021/12/22 07:56:04;;;;;;;20.00;8.70;;;-1.40;99.90;;;;;;5134062;27;20230;-50
2021/12/22 07:58:29;;;;;;;14.70;9.02;;;-1.40;99.90;;;;;;5134422;27;20164;-50
2021/12/22 08:00:56;;;;;;;18.58;10.02;;;-1.30;99.90;;;;;;5134391;27;20558;-50
2021/12/22 08:03:23;;;;;;;15.98;9.27;;;-1.40;99.90;;;;;;5134057;27;20522;-51
2021/12/22 08:05:48;;;;;;;18.25;8.93;;;-1.30;99.90;;;;;;5134027;27;20854;-51
2021/12/22 08:08:15;;;;;;;15.05;8.60;;;-1.30;99.90;;;;;;5133911;27;20243;-49
2021/12/22 08:10:41;;;;;;;13.68;8.10;;;-1.30;99.90;;;;;;5115265;27;20223;-51
2021/12/22 08:13:07;;;;;;;14.63;7.90;;;-1.30;99.90;;;;;;5133885;27;20159;-50
2021/12/22 08:15:33;;;;;;;17.30;8.48;;;-1.20;99.90;;;;;;5133781;27;20188;-50
2021/12/22 08:17:58;;;;;;;16.73;8.48;;;-1.20;99.90;;;;;;5134423;27;20247;-50
2021/12/22 08:20:25;;;;;;;17.50;8.27;;;-1.20;99.90;;;;;;5134341;27;20195;-50
2021/12/22 08:22:51;;;;;;;17.50;9.85;;;-1.20;99.90;;;;;;5133637;27;20220;-51
2021/12/22 08:25:17;;;;;;;15.85;7.90;;;-1.20;99.90;;;;;;5133673;27;20160;-50
2021/12/22 08:27:42;;;;;;;13.90;8.23;;;-1.20;99.90;;;;;;5133583;27;20577;-50
2021/12/22 08:30:09;;;;;;;14.23;8.23;;;-1.20;99.90;;;;;;5133537;27;20160;-50
2021/12/22 08:32:35;;;;;;;20.00;8.60;;;-1.10;99.90;;;;;;5133012;27;20187;-50
2021/12/22 08:35:02;;;;;;;17.77;8.27;;;-1.00;99.90;;;;;;5133443;27;20164;-49
2021/12/22 08:40:17;;;;;;;15.82;8.52;;;-0.90;99.90;;;;;;5133434;27;20167;-50
2021/12/22 08:42:43;;;;;;;15.50;8.68;;;-0.90;99.90;;;;;;5133648;27;20228;-50
2021/12/22 08:45:09;;;;;;;15.85;8.48;;;-0.90;99.90;;;;;;5131735;27;20253;-50
2021/12/22 08:47:35;;;;;;;20.17;10.25;;;-0.80;99.90;;;;;;5131406;27;20184;-51
2021/12/22 08:50:00;;;;;;;16.98;11.15;;;-0.70;99.90;;;;;;5146200;27;20638;-50
2021/12/22 08:52:26;;;;;;;43.67;27.13;;;-0.70;99.90;;;;;;5152664;27;20204;-50
2021/12/22 08:54:52;;;;;;;28.80;15.73;;;-0.60;99.90;;;;;;5152397;27;20171;-54
2021/12/22 08:57:18;;;;;;;20.50;11.43;;;-0.50;99.90;;;;;;5152457;27;20182;-56
2021/12/22 08:59:45;;;;;;;26.13;12.77;;;-0.40;99.90;;;;;;5152419;27;20163;-59
2021/12/22 09:02:11;;;;;;;18.63;11.98;;;-0.40;99.90;;;;;;5152439;27;20171;-46
2021/12/22 09:04:36;;;;;;;19.27;9.80;;;-0.40;99.90;;;;;;5152542;27;20258;-54
2021/12/22 09:07:02;;;;;;;23.65;13.25;;;-0.40;99.90;;;;;;5152589;27;20664;-54
2021/12/22 09:09:29;;;;;;;15.30;9.80;;;-0.30;99.90;;;;;;5152580;27;20186;-51
2021/12/22 09:11:54;;;;;;;24.08;10.32;;;-0.30;99.90;;;;;;5152108;27;20241;-47
2021/12/22 09:14:21;;;;;;;34.83;20.48;;;-0.40;99.90;;;;;;5152314;27;20634;-48
2021/12/22 09:16:48;;;;;;;15.80;9.88;;;-0.30;99.90;;;;;;5152063;27;20670;-46
2021/12/22 09:19:14;;;;;;;11.60;8.23;;;-0.30;99.90;;;;;;5151914;27;20222;-55
2021/12/22 09:21:40;;;;;;;20.85;12.18;;;-0.30;99.90;;;;;;5133664;27;20258;-54
2021/12/22 09:24:07;;;;;;;21.08;10.85;;;-0.20;99.90;;;;;;5152206;27;20170;-50
2021/12/22 09:26:32;;;;;;;18.60;11.95;;;-0.20;99.90;;;;;;5152315;27;20240;-50
2021/12/22 09:28:58;;;;;;;24.15;17.35;;;-0.20;99.90;;;;;;5152426;27;20291;-50
2021/12/22 09:31:24;;;;;;;17.83;11.45;;;-0.20;99.90;;;;;;5152101;27;20255;-49
2021/12/22 09:33:51;;;;;;;17.73;11.77;;;-0.10;99.90;;;;;;5152076;27;20301;-51
2021/12/22 09:36:16;;;;;;;15.50;9.82;;;0.00;99.90;;;;;;5152007;27;20203;-50
2021/12/22 09:38:43;;;;;;;19.08;11.90;;;0.00;99.90;;;;;;5152137;27;20164;-50
2021/12/22 09:41:09;;;;;;;22.92;13.27;;;0.10;99.90;;;;;;5152117;27;20242;-51
2021/12/22 09:43:35;;;;;;;13.38;9.80;;;0.20;99.90;;;;;;5152891;27;20616;-50
2021/12/22 09:46:06;;;;;;;14.80;9.57;;;0.30;99.90;;;;;;5156156;27;20163;-51
2021/12/22 09:53:34;;;;;;;17.38;9.60;;;0.50;99.90;;;;;;5135932;27;20160;-50
2021/12/22 09:56:00;;;;;;;16.30;10.00;;;0.60;99.90;;;;;;5135533;27;20208;-49
2021/12/22 09:58:27;;;;;;;27.38;10.43;;;1.10;99.90;;;;;;5135354;27;20164;-50
2021/12/22 10:00:53;;;;;;;14.88;8.68;;;0.60;99.90;;;;;;5134908;27;20170;-50
2021/12/22 10:03:21;;;;;;;11.40;8.80;;;0.70;99.90;;;;;;5135102;27;20168;-50
2021/12/22 10:05:47;;;;;;;16.98;9.88;;;0.60;99.90;;;;;;5135195;27;20165;-50
2021/12/22 10:08:24;;;;;;;12.13;8.80;;;0.70;99.90;;;;;;5135139;27;20172;-50
2021/12/22 10:10:59;;;;;;;16.55;8.98;;;0.80;99.90;;;;;;5135062;27;20303;-50
2021/12/22 10:13:26;;;;;;;16.08;9.93;;;0.90;99.90;;;;;;5134632;27;20176;-51
2021/12/22 10:15:52;;;;;;;14.40;8.23;;;0.90;99.90;;;;;;5134807;27;20238;-50
2021/12/22 10:18:24;;;;;;;12.85;8.75;;;0.90;99.90;;;;;;5134919;27;20195;-51
2021/12/22 10:20:53;;;;;;;16.63;8.98;;;1.00;99.90;;;;;;5116488;27;20765;-51
2021/12/22 10:23:28;;;;;;;13.38;9.10;;;1.00;99.90;;;;;;5133895;27;20171;-51
2021/12/22 10:25:57;;;;;;;14.60;8.95;;;1.00;99.90;;;;;;5134680;27;20175;-51
2021/12/22 10:28:24;;;;;;;18.92;10.48;;;1.00;99.90;;;;;;5134603;27;20613;-51
2021/12/22 10:30:56;;;;;;;20.77;13.82;;;1.10;99.90;;;;;;5134533;27;20200;-50
2021/12/22 10:33:25;;;;;;;23.08;14.95;;;1.20;99.90;;;;;;5134543;27;20176;-51
2021/12/22 10:35:53;;;;;;;33.63;16.48;;;1.20;99.90;;;;;;5134476;27;20207;-50
2021/12/22 10:38:24;;;;;;;24.92;15.27;;;1.20;99.90;;;;;;5115746;27;20168;-51
2021/12/22 10:40:53;;;;;;;20.60;14.88;;;1.30;99.90;;;;;;5134563;27;20180;-51
2021/12/22 10:43:31;;;;;;;23.50;12.65;;;1.30;99.90;;;;;;5113851;27;20168;-51
2021/12/22 10:46:03;;;;;;;20.15;10.75;;;2.60;99.90;;;;;;5134604;27;20204;-51
2021/12/22 10:51:26;;;;;;;18.70;9.68;;;1.40;99.90;;;;;;5134375;27;20211;-51
2021/12/22 10:53:53;;;;;;;24.90;15.68;;;1.30;99.90;;;;;;5130917;27;20227;-50
2021/12/22 10:56:40;;;;;;;20.67;12.45;;;1.40;99.90;;;;;;5133924;27;20200;-50
2021/12/22 10:59:13;;;;;;;14.27;8.73;;;1.30;99.90;;;;;;5134073;27;20168;-50
2021/12/22 11:01:54;;;;;;;16.08;10.15;;;1.20;99.90;;;;;;5133323;27;20179;-50
2021/12/22 11:04:28;;;;;;;25.40;12.70;;;1.30;99.90;;;;;;5134191;27;20260;-48
2021/12/22 11:07:04;;;;;;;27.73;13.13;;;1.30;99.90;;;;;;5134084;27;20246;-50
2021/12/22 11:09:34;;;;;;;23.70;11.40;;;1.40;99.90;;;;;;5133912;27;20175;-51
2021/12/22 11:12:00;;;;;;;18.13;9.57;;;1.50;99.90;;;;;;5133964;27;20222;-49
2021/12/22 11:14:28;;;;;;;17.90;10.10;;;1.60;99.90;;;;;;5133744;27;20255;-50
2021/12/22 11:17:01;;;;;;;18.23;10.13;;;1.60;99.90;;;;;;5133684;27;20199;-51
2021/12/22 11:19:29;;;;;;;21.30;13.00;;;1.70;99.90;;;;;;5134353;27;20209;-50
2021/12/22 11:22:11;;;;;;;17.15;9.00;;;1.80;99.90;;;;;;5133774;27;20259;-53
2021/12/22 11:24:59;;;;;;;17.92;10.35;;;1.80;99.90;;;;;;5133570;27;20235;-51
2021/12/22 11:27:26;;;;;;;26.08;10.65;;;1.70;99.90;;;;;;5133129;27;20255;-50
2021/12/22 11:29:58;;;;;;;19.90;10.57;;;1.80;99.90;;;;;;5133989;27;20156;-50
2021/12/22 11:32:31;;;;;;;21.77;13.18;;;1.80;99.90;;;;;;5134234;27;20224;-50
2021/12/22 11:35:02;;;;;;;18.88;10.63;;;1.90;99.90;;;;;;5134035;27;20164;-51
2021/12/22 11:37:29;;;;;;;16.30;8.90;;;2.00;99.90;;;;;;5134321;27;20275;-49
2021/12/22 11:39:57;;;;;;;17.33;10.27;;;2.00;99.90;;;;;;5130816;27;20267;-49
2021/12/22 11:42:29;;;;;;;15.15;9.77;;;2.10;99.90;;;;;;5133621;27;20168;-51
2021/12/22 11:45:04;;;;;;;21.80;11.15;;;2.10;99.90;;;;;;5134292;27;20171;-49
2021/12/22 11:47:31;;;;;;;18.52;10.57;;;2.20;99.90;;;;;;5134842;27;20622;-50
2021/12/22 11:49:59;;;;;;;14.27;9.07;;;2.20;99.90;;;;;;5134013;27;20642;-51
2021/12/22 11:52:36;;;;;;;15.77;9.27;;;2.20;99.90;;;;;;5133640;27;20168;-50
2021/12/22 11:55:26;;;;;;;14.73;8.32;;;2.20;99.90;;;;;;5133619;27;20172;-51
2021/12/22 11:58:16;;;;;;;14.30;9.02;;;2.10;99.90;;;;;;5133852;27;20164;-51
2021/12/22 12:01:08;;;;;;;14.50;8.18;;;2.20;99.90;;;;;;5133592;27;20259;-51
2021/12/22 12:03:44;;;;;;;18.75;11.48;;;2.30;99.90;;;;;;5115334;27;20163;-51
2021/12/22 12:06:18;;;;;;;18.50;10.48;;;2.30;99.90;;;;;;5132636;27;20262;-51
2021/12/22 12:08:50;;;;;;;15.43;9.30;;;2.30;99.90;;;;;;5115280;27;20179;-51
2021/12/22 12:11:21;;;;;;;15.52;9.85;;;2.30;99.90;;;;;;5133664;27;20223;-51
2021/12/22 12:21:58;;;;;;;14.13;8.73;;;2.50;99.90;;;;;;5133576;27;20170;-51
2021/12/22 12:24:39;;;;;;;13.88;9.35;;;2.50;99.90;;;;;;5133553;27;20159;-51
2021/12/22 12:27:34;;;;;;;14.27;9.55;;;2.50;99.90;;;;;;5133556;27;20155;-51
2021/12/22 12:30:03;;;;;;;14.13;8.63;;;2.50;99.90;;;;;;5111585;27;20179;-51
2021/12/22 12:32:50;;;;;;;15.82;9.77;;;2.50;99.90;;;;;;5133890;27;20187;-51
2021/12/22 12:35:26;;;;;;;19.75;9.13;;;2.60;99.90;;;;;;5114909;27;20617;-51
2021/12/22 12:37:58;;;;;;;24.27;13.88;;;2.50;99.90;;;;;;5133385;27;20168;-51
2021/12/22 12:40:42;;;;;;;14.52;9.02;;;2.50;99.90;;;;;;5133692;27;20507;-51
2021/12/22 12:43:09;;;;;;;30.30;14.63;;;2.50;99.90;;;;;;5133295;27;20209;-51
2021/12/22 12:45:46;;;;;;;14.82;10.30;;;2.50;99.90;;;;;;5133363;27;20232;-51
2021/12/22 12:48:30;;;;;;;20.75;9.45;;;2.50;99.90;;;;;;5133562;27;20171;-51
2021/12/22 12:51:15;;;;;;;15.57;9.70;;;2.50;99.90;;;;;;5133811;27;20171;-51
2021/12/22 12:53:47;;;;;;;15.45;9.32;;;2.50;99.90;;;;;;5133218;27;20620;-51
2021/12/22 12:56:14;;;;;;;12.30;8.35;;;2.40;99.90;;;;;;5133130;27;20727;-51
2021/12/22 12:58:57;;;;;;;18.40;10.52;;;2.50;99.90;;;;;;5133066;27;20168;-51
2021/12/22 13:01:51;;;;;;;15.63;9.70;;;2.40;99.90;;;;;;5133085;27;20195;-51
2021/12/22 13:04:34;;;;;;;15.38;8.52;;;2.40;99.90;;;;;;5114679;27;20164;-51
2021/12/22 13:06:59;;;;;;;15.07;9.43;;;2.40;99.90;;;;;;5133319;27;20171;-51
2021/12/22 13:09:38;;;;;;;17.40;9.85;;;2.40;99.90;;;;;;5132999;27;20156;-50
2021/12/22 13:12:15;;;;;;;14.93;10.02;;;2.30;99.90;;;;;;5132802;27;20758;-51
2021/12/22 13:17:42;;;;;;;18.17;9.32;;;2.40;99.90;;;;;;5134832;27;20606;-51
2021/12/22 13:20:10;;;;;;;14.98;8.90;;;2.40;99.90;;;;;;5139749;27;20166;-51
2021/12/22 13:22:39;;;;;;;14.88;9.30;;;2.30;99.90;;;;;;5139666;27;20172;-51